createdAt,value
2019-04-06T00:01:01.383Z,7.87
2019-04-06T00:03:30.757Z,7.88
2019-04-06T00:06:00.106Z,7.88
2019-04-06T00:08:29.468Z,7.87
2019-04-06T00:10:58.803Z,7.88
2019-04-06T00:13:28.159Z,7.88
2019-04-06T00:15:57.541Z,7.91
2019-04-06T00:18:26.870Z,7.91
2019-04-06T00:20:56.259Z,7.92
2019-04-06T00:23:25.585Z,7.93
2019-04-06T00:25:54.947Z,7.93
2019-04-06T00:28:26.219Z,7.92
2019-04-06T00:31:09.052Z,7.93
2019-04-06T00:33:38.411Z,7.94
2019-04-06T00:36:14.069Z,7.95
2019-04-06T00:38:43.464Z,7.95
2019-04-06T00:41:12.855Z,7.95
2019-04-06T00:43:42.198Z,7.96
2019-04-06T00:46:11.566Z,7.95
2019-04-06T00:48:40.924Z,7.95
2019-04-06T00:51:10.313Z,7.96
2019-04-06T00:53:39.687Z,7.96
2019-04-06T00:56:09.023Z,7.97
2019-04-06T00:58:38.395Z,7.98
2019-04-06T01:01:07.774Z,8.00
2019-04-06T01:03:37.122Z,8.01
2019-04-06T01:06:06.801Z,8.02
2019-04-06T01:08:36.275Z,8.04
2019-04-06T01:11:05.799Z,8.05
2019-04-06T01:13:35.164Z,8.08
2019-04-06T01:16:04.529Z,8.07
2019-04-06T01:18:33.903Z,8.09
2019-04-06T01:21:04.642Z,8.09
2019-04-06T01:23:34.009Z,8.11
2019-04-06T01:26:07.458Z,8.12
2019-04-06T01:28:34.441Z,8.14
2019-04-06T01:31:03.810Z,8.15
2019-04-06T01:33:33.183Z,8.16
2019-04-06T01:36:02.559Z,8.18
2019-04-06T01:38:31.905Z,8.18
2019-04-06T01:41:02.794Z,8.19
2019-04-06T01:43:32.184Z,8.19
2019-04-06T01:46:01.582Z,8.21
2019-04-06T01:48:30.889Z,8.21
2019-04-06T01:51:00.382Z,8.22
2019-04-06T01:53:29.774Z,8.22
2019-04-06T01:55:59.102Z,8.22
2019-04-06T01:58:28.483Z,8.21
2019-04-06T02:01:06.302Z,8.23
2019-04-06T02:03:35.727Z,8.23
2019-04-06T02:06:05.040Z,8.23
2019-04-06T02:08:34.413Z,8.23
2019-04-06T02:11:03.964Z,8.23
2019-04-06T02:13:33.296Z,8.24
2019-04-06T02:16:02.662Z,8.25
2019-04-06T02:18:32.059Z,8.25
2019-04-06T02:21:01.429Z,8.25
2019-04-06T02:23:30.773Z,8.25
2019-04-06T02:26:00.133Z,8.24
2019-04-06T02:28:29.473Z,8.26
2019-04-06T02:31:23.159Z,8.27
2019-04-06T02:34:29.843Z,8.28
2019-04-06T02:37:23.963Z,8.27
2019-04-06T02:40:02.149Z,8.27
2019-04-06T02:42:36.913Z,8.27
2019-04-06T02:45:06.818Z,8.28
2019-04-06T02:47:42.445Z,8.28
2019-04-06T02:50:12.184Z,8.28
2019-04-06T02:52:41.499Z,8.28
2019-04-06T02:55:11.741Z,8.28
2019-04-06T02:57:41.130Z,8.27
2019-04-06T03:00:10.485Z,8.27
2019-04-06T03:02:39.814Z,8.26
2019-04-06T03:05:09.458Z,8.24
2019-04-06T03:07:38.819Z,8.23
2019-04-06T03:10:08.667Z,8.22
2019-04-06T03:12:38.204Z,8.20
2019-04-06T03:15:08.093Z,8.17
2019-04-06T03:17:37.367Z,8.15
2019-04-06T03:20:06.943Z,8.13
2019-04-06T03:22:36.222Z,8.11
2019-04-06T03:25:05.697Z,8.11
2019-04-06T03:27:35.027Z,8.07
2019-04-06T03:30:05.136Z,8.08
2019-04-06T03:32:34.739Z,8.07
2019-04-06T03:35:05.693Z,8.07
2019-04-06T03:37:37.331Z,8.08
2019-04-06T03:40:07.991Z,8.07
2019-04-06T03:42:37.337Z,8.07
2019-04-06T03:45:07.412Z,8.07
2019-04-06T03:47:36.715Z,8.07
2019-04-06T03:50:07.079Z,8.06
2019-04-06T03:52:36.400Z,8.05
2019-04-06T03:55:07.361Z,8.04
2019-04-06T03:57:36.682Z,8.04
2019-04-06T04:00:07.480Z,8.04
2019-04-06T04:02:36.790Z,8.04
2019-04-06T04:05:06.796Z,8.04
2019-04-06T04:07:36.138Z,8.04
2019-04-06T04:10:06.827Z,8.05
2019-04-06T04:12:36.210Z,8.06
2019-04-06T04:15:06.273Z,8.08
2019-04-06T04:17:35.649Z,8.09
2019-04-06T04:20:06.651Z,8.09
2019-04-06T04:22:35.997Z,8.10
2019-04-06T04:25:05.325Z,8.11
2019-04-06T04:27:34.661Z,8.11
2019-04-06T04:30:04.659Z,8.11
2019-04-06T04:32:33.979Z,8.12
2019-04-06T04:35:03.343Z,8.12
2019-04-06T04:37:32.690Z,8.13
2019-04-06T04:40:02.332Z,8.14
2019-04-06T04:42:31.662Z,8.14
2019-04-06T04:45:01.242Z,8.15
2019-04-06T04:47:30.666Z,8.14
2019-04-06T04:49:59.989Z,8.13
2019-04-06T04:52:29.339Z,8.13
2019-04-06T04:54:58.717Z,8.11
2019-04-06T04:57:39.295Z,8.09
2019-04-06T04:59:59.155Z,8.07
2019-04-06T05:02:28.483Z,8.06
2019-04-06T05:04:57.818Z,8.04
2019-04-06T05:07:27.183Z,8.03
2019-04-06T05:09:56.548Z,8.02
2019-04-06T05:12:26.055Z,8.00
2019-04-06T05:14:59.411Z,7.98
2019-04-06T05:17:28.879Z,7.97
2019-04-06T05:19:58.506Z,7.95
2019-04-06T05:22:28.003Z,7.94
2019-04-06T05:24:57.341Z,7.91
2019-04-06T05:27:26.893Z,7.89
2019-04-06T05:29:56.440Z,7.87
2019-04-06T05:32:25.924Z,7.85
2019-04-06T05:34:57.902Z,7.84
2019-04-06T05:37:26.352Z,7.82
2019-04-06T05:39:55.739Z,7.81
2019-04-06T05:42:25.058Z,7.79
2019-04-06T05:44:54.418Z,7.79
2019-04-06T05:47:23.915Z,7.79
2019-04-06T05:49:53.272Z,7.80
2019-04-06T05:52:22.669Z,7.80
2019-04-06T05:54:51.983Z,7.81
2019-04-06T05:57:21.457Z,7.82
2019-04-06T05:59:50.808Z,7.83
2019-04-06T06:02:20.129Z,7.84
2019-04-06T06:04:49.475Z,7.86
2019-04-06T06:07:18.801Z,7.90
2019-04-06T06:09:48.246Z,7.92
2019-04-06T06:12:17.559Z,7.95
2019-04-06T06:14:46.906Z,7.99
2019-04-06T06:17:16.268Z,8.02
2019-04-06T06:19:45.620Z,8.04
2019-04-06T06:22:14.968Z,8.08
2019-04-06T06:24:44.328Z,8.11
2019-04-06T06:27:13.693Z,8.14
2019-04-06T06:29:43.052Z,8.19
2019-04-06T06:32:12.513Z,8.22
2019-04-06T06:34:41.963Z,8.24
2019-04-06T06:37:11.365Z,8.25
2019-04-06T06:39:40.768Z,8.26
2019-04-06T06:42:10.096Z,8.26
2019-04-06T06:44:39.470Z,8.27
2019-04-06T06:47:08.867Z,8.29
2019-04-06T06:49:38.235Z,8.31
2019-04-06T06:52:07.614Z,8.33
2019-04-06T06:54:37.012Z,8.35
2019-04-06T06:57:06.561Z,8.38
2019-04-06T06:59:35.935Z,8.41
2019-04-06T07:02:05.270Z,8.44
2019-04-06T07:04:34.683Z,8.48
2019-04-06T07:07:04.127Z,8.51
2019-04-06T07:09:33.479Z,8.55
2019-04-06T07:12:03.085Z,8.60
2019-04-06T07:14:32.442Z,8.63
2019-04-06T07:17:02.029Z,8.65
2019-04-06T07:19:31.598Z,8.70
2019-04-06T07:22:05.610Z,8.74
2019-04-06T07:24:34.959Z,8.80
2019-04-06T07:27:08.062Z,8.83
2019-04-06T07:29:41.450Z,8.87
2019-04-06T07:32:10.879Z,8.92
2019-04-06T07:34:40.477Z,8.95
2019-04-06T07:37:09.863Z,8.97
2019-04-06T07:39:39.359Z,9.02
2019-04-06T07:42:08.781Z,9.05
2019-04-06T07:44:38.115Z,9.09
2019-04-06T07:47:07.515Z,9.13
2019-04-06T07:49:36.904Z,9.16
2019-04-06T07:52:06.302Z,9.19
2019-04-06T07:54:35.831Z,9.23
2019-04-06T07:57:05.300Z,9.26
2019-04-06T07:59:35.010Z,9.30
2019-04-06T08:02:04.374Z,9.32
2019-04-06T08:04:33.703Z,9.34
2019-04-06T08:07:03.043Z,9.38
2019-04-06T08:09:32.445Z,9.41
2019-04-06T08:12:01.850Z,9.41
2019-04-06T08:14:33.699Z,9.42
2019-04-06T08:17:03.039Z,9.43
2019-04-06T08:19:32.422Z,9.43
2019-04-06T08:22:01.812Z,9.42
2019-04-06T08:24:32.203Z,9.41
2019-04-06T08:27:01.598Z,9.39
2019-04-06T08:29:31.161Z,9.38
2019-04-06T08:32:00.443Z,9.38
2019-04-06T08:34:29.810Z,9.37
2019-04-06T08:36:59.148Z,9.36
2019-04-06T08:39:28.518Z,9.34
2019-04-06T08:41:57.889Z,9.35
2019-04-06T08:44:27.258Z,9.36
2019-04-06T08:46:56.870Z,9.39
2019-04-06T08:49:26.306Z,9.45
2019-04-06T08:51:55.647Z,9.49
2019-04-06T08:54:25.123Z,9.54
2019-04-06T08:56:56.836Z,9.58
2019-04-06T08:59:26.223Z,9.65
2019-04-06T09:01:55.618Z,9.71
2019-04-06T09:04:27.282Z,9.78
2019-04-06T09:06:56.641Z,9.87
2019-04-06T09:09:26.009Z,9.94
2019-04-06T09:11:55.337Z,10.02
2019-04-06T09:14:24.701Z,10.09
2019-04-06T09:16:54.327Z,10.16
2019-04-06T09:19:23.838Z,10.24
2019-04-06T09:21:53.218Z,10.28
2019-04-06T09:24:22.597Z,10.36
2019-04-06T09:26:51.977Z,10.42
2019-04-06T09:29:23.560Z,10.48
2019-04-06T09:31:52.410Z,10.53
2019-04-06T09:34:22.022Z,10.58
2019-04-06T09:36:51.648Z,10.64
2019-04-06T09:39:20.972Z,10.70
2019-04-06T09:41:50.483Z,10.74
2019-04-06T09:44:41.075Z,10.81
2019-04-06T09:47:19.368Z,10.87
2019-04-06T09:50:10.425Z,10.92
2019-04-06T09:52:52.250Z,10.95
2019-04-06T09:55:28.558Z,11.00
2019-04-06T09:58:22.764Z,11.04
2019-04-06T10:01:11.035Z,11.08
2019-04-06T10:03:56.394Z,11.13
2019-04-06T10:06:59.683Z,11.17
2019-04-06T10:09:48.564Z,11.21
2019-04-06T10:12:35.692Z,11.26
2019-04-06T10:15:27.341Z,11.30
2019-04-06T10:18:21.672Z,11.30
2019-04-06T10:20:58.925Z,11.34
2019-04-06T10:23:53.478Z,11.40
2019-04-06T10:26:49.535Z,11.47
2019-04-06T10:29:34.137Z,11.52
2019-04-06T10:32:23.729Z,11.60
2019-04-06T10:35:10.729Z,11.66
2019-04-06T10:37:55.346Z,11.72
2019-04-06T10:40:41.015Z,11.72
2019-04-06T10:43:44.635Z,11.77
2019-04-06T10:46:35.430Z,11.83
2019-04-06T10:49:11.526Z,11.83
2019-04-06T10:52:01.843Z,11.85
2019-04-06T10:54:50.179Z,11.85
2019-04-06T10:57:50.865Z,11.87
2019-04-06T11:00:37.750Z,11.87
2019-04-06T11:03:24.952Z,11.96
2019-04-06T11:06:19.415Z,11.96
2019-04-06T11:09:02.181Z,12.04
2019-04-06T11:11:49.292Z,12.12
2019-04-06T11:14:37.642Z,12.12
2019-04-06T11:17:38.193Z,12.18
2019-04-06T11:20:35.725Z,12.27
2019-04-06T11:23:19.423Z,12.27
2019-04-06T11:26:07.736Z,12.34
2019-04-06T11:28:55.108Z,12.37
2019-04-06T11:31:55.688Z,12.37
2019-04-06T11:34:53.027Z,12.44
2019-04-06T11:37:44.438Z,12.60
2019-04-06T11:40:28.240Z,12.60
2019-04-06T11:43:28.602Z,12.76
2019-04-06T11:46:20.062Z,13.03
2019-04-06T11:49:05.789Z,13.03
2019-04-06T11:51:49.510Z,13.21
2019-04-06T11:54:36.857Z,13.34
2019-04-06T11:57:15.377Z,13.46
2019-04-06T12:00:03.683Z,13.59
2019-04-06T12:02:42.005Z,13.79
2019-04-06T12:05:30.419Z,13.94
2019-04-06T12:08:17.293Z,14.10
2019-04-06T12:11:04.315Z,14.23
2019-04-06T12:13:40.160Z,14.26
2019-04-06T12:16:19.037Z,14.34
2019-04-06T12:19:05.750Z,14.44
2019-04-06T12:21:47.874Z,14.62
2019-04-06T12:24:45.563Z,14.77
2019-04-06T12:27:32.533Z,14.94
2019-04-06T12:30:37.770Z,15.11
2019-04-06T12:33:18.628Z,15.29
2019-04-06T12:36:00.746Z,15.37
2019-04-06T12:38:51.812Z,15.45
2019-04-06T12:41:38.759Z,15.53
2019-04-06T12:44:27.037Z,15.72
2019-04-06T12:47:06.578Z,15.87
2019-04-06T12:50:13.270Z,15.99
2019-04-06T12:52:49.235Z,16.11
2019-04-06T12:55:36.017Z,16.27
2019-04-06T12:58:22.961Z,16.35
2019-04-06T13:01:17.119Z,16.29
2019-04-06T13:04:20.394Z,16.29
2019-04-06T13:07:17.311Z,16.45
2019-04-06T13:09:55.575Z,16.58
2019-04-06T13:12:42.606Z,16.68
2019-04-06T13:15:29.569Z,16.82
2019-04-06T13:18:23.252Z,16.98
2019-04-06T13:21:14.742Z,17.15
2019-04-06T13:24:18.001Z,17.33
2019-04-06T13:27:15.427Z,17.42
2019-04-06T13:30:02.164Z,17.54
2019-04-06T13:32:59.595Z,17.54
2019-04-06T13:35:54.549Z,17.59
2019-04-06T13:38:47.136Z,17.64
2019-04-06T13:41:38.258Z,17.61
2019-04-06T13:44:28.409Z,17.59
2019-04-06T13:47:15.186Z,17.67
2019-04-06T13:50:12.619Z,17.76
2019-04-06T13:53:01.649Z,17.79
2019-04-06T13:56:08.661Z,17.87
2019-04-06T13:59:03.112Z,17.92
2019-04-06T14:01:54.260Z,17.94
2019-04-06T14:04:34.586Z,17.83
2019-04-06T14:10:32.661Z,17.80
2019-04-06T14:13:26.957Z,17.81
2019-04-06T14:16:20.037Z,17.79
2019-04-06T14:22:21.715Z,17.90
2019-04-06T14:25:12.713Z,17.95
2019-04-06T14:28:09.747Z,17.99
2019-04-06T14:31:10.339Z,17.95
2019-04-06T14:34:10.924Z,17.90
2019-04-06T14:37:05.300Z,17.94
2019-04-06T14:40:02.383Z,18.05
2019-04-06T14:43:05.698Z,18.11
2019-04-06T14:45:53.276Z,18.16
2019-04-06T14:48:33.468Z,18.20
2019-04-06T14:51:09.731Z,18.24
2019-04-06T14:53:52.785Z,18.33
2019-04-06T14:56:38.355Z,18.44
2019-04-06T14:59:26.798Z,18.49
2019-04-06T15:02:15.116Z,18.46
2019-04-06T15:05:02.371Z,18.44
2019-04-06T15:08:05.741Z,18.45
2019-04-06T15:10:57.530Z,18.41
2019-04-06T15:13:42.527Z,18.38
2019-04-06T15:16:18.032Z,18.37
2019-04-06T15:19:03.986Z,18.38
2019-04-06T15:22:01.337Z,18.41
2019-04-06T15:24:52.807Z,18.37
2019-04-06T15:27:56.361Z,18.26
2019-04-06T15:30:41.844Z,18.20
2019-04-06T15:33:28.824Z,18.16
2019-04-06T15:36:26.431Z,18.12
2019-04-06T15:39:08.111Z,18.01
2019-04-06T15:41:55.362Z,17.89
2019-04-06T15:44:39.106Z,17.81
2019-04-06T15:47:27.507Z,17.75
2019-04-06T15:50:26.857Z,17.79
2019-04-06T15:53:07.264Z,17.95
2019-04-06T15:55:45.356Z,18.10
2019-04-06T15:58:42.790Z,18.20
2019-04-06T16:01:33.030Z,18.29
2019-04-06T16:04:20.109Z,18.31
2019-04-06T16:07:29.818Z,18.48
2019-04-06T16:10:07.932Z,18.61
2019-04-06T16:12:54.979Z,18.70
2019-04-06T16:15:45.993Z,18.65
2019-04-06T16:18:40.356Z,18.41
2019-04-06T16:21:25.508Z,18.35
2019-04-06T16:24:13.775Z,18.47
2019-04-06T16:26:51.735Z,18.53
2019-04-06T16:33:17.283Z,18.71
2019-04-06T16:36:14.813Z,18.81
2019-04-06T16:38:53.911Z,18.91
2019-04-06T16:41:51.305Z,19.03
2019-04-06T16:44:31.473Z,19.10
2019-04-06T16:47:34.750Z,19.16
2019-04-06T16:50:23.740Z,19.22
2019-04-06T16:53:18.052Z,19.31
2019-04-06T16:56:06.870Z,19.42
2019-04-06T16:58:57.981Z,19.54
2019-04-06T17:01:42.539Z,19.71
2019-04-06T17:04:40.592Z,19.81
2019-04-06T17:07:19.364Z,19.91
2019-04-06T17:10:02.113Z,19.90
2019-04-06T17:12:59.359Z,19.82
2019-04-06T17:15:48.035Z,19.78
2019-04-06T17:18:46.256Z,19.69
2019-04-06T17:21:27.454Z,19.60
2019-04-06T17:24:27.645Z,19.55
2019-04-06T17:27:10.682Z,19.45
2019-04-06T17:29:55.454Z,19.30
2019-04-06T17:32:44.056Z,19.13
2019-04-06T17:35:41.774Z,18.98
2019-04-06T17:38:20.417Z,18.81
2019-04-06T17:40:58.659Z,18.66
2019-04-06T17:43:47.572Z,18.51
2019-04-06T17:46:32.750Z,18.36
2019-04-06T17:49:36.156Z,18.14
2019-04-06T17:52:37.053Z,17.81
2019-04-06T17:55:41.397Z,17.48
2019-04-06T17:58:23.356Z,17.14
2019-04-06T18:00:59.688Z,16.83
2019-04-06T18:03:50.125Z,16.55
2019-04-06T18:06:35.966Z,16.33
2019-04-06T18:09:32.817Z,16.11
2019-04-06T18:12:17.393Z,15.93
2019-04-06T18:14:47.186Z,15.70
2019-04-06T18:17:16.589Z,15.52
2019-04-06T18:19:46.468Z,15.36
2019-04-06T18:22:19.354Z,15.02
2019-04-06T18:24:48.966Z,15.02
2019-04-06T18:27:18.395Z,14.76
2019-04-06T18:29:47.736Z,14.69
2019-04-06T18:32:29.521Z,14.69
2019-04-06T18:34:59.336Z,14.57
2019-04-06T18:37:42.726Z,14.45
2019-04-06T18:40:23.687Z,14.34
2019-04-06T18:43:00.250Z,14.22
2019-04-06T18:45:33.658Z,14.09
2019-04-06T18:48:03.810Z,13.98
2019-04-06T18:50:38.019Z,13.89
2019-04-06T18:53:04.639Z,13.82
2019-04-06T18:55:33.984Z,13.75
2019-04-06T18:58:10.531Z,13.69
2019-04-06T19:00:34.598Z,13.60
2019-04-06T19:03:12.760Z,13.52
2019-04-06T19:05:35.230Z,13.44
2019-04-06T19:11:36.345Z,13.27
2019-04-06T19:14:05.818Z,13.15
2019-04-06T19:16:35.487Z,12.95
2019-04-06T19:19:04.843Z,12.95
2019-04-06T19:21:34.339Z,12.90
2019-04-06T19:24:03.724Z,12.81
2019-04-06T19:26:33.856Z,12.74
2019-04-06T19:29:03.443Z,12.66
2019-04-06T19:31:32.765Z,12.60
2019-04-06T19:34:02.308Z,12.49
2019-04-06T19:36:31.661Z,12.49
2019-04-06T19:39:01.007Z,12.36
2019-04-06T19:41:30.544Z,12.34
2019-04-06T19:44:00.041Z,12.34
2019-04-06T19:46:29.495Z,12.21
2019-04-06T19:48:58.750Z,12.21
2019-04-06T19:51:28.380Z,12.08
2019-04-06T19:53:57.776Z,12.03
2019-04-06T19:56:27.644Z,12.03
2019-04-06T19:58:56.971Z,11.98
2019-04-06T20:01:26.291Z,11.87
2019-04-06T20:03:55.592Z,11.85
2019-04-06T20:06:27.188Z,11.85
2019-04-06T20:08:56.534Z,11.80
2019-04-06T20:11:25.907Z,11.76
2019-04-06T20:13:56.216Z,11.72
2019-04-06T20:16:25.643Z,11.67
2019-04-06T20:18:55.453Z,11.66
2019-04-06T20:21:25.337Z,11.66
2019-04-06T20:23:54.991Z,11.61
2019-04-06T20:26:24.362Z,11.62
2019-04-06T20:28:53.650Z,11.60
2019-04-06T20:31:22.963Z,11.54
2019-04-06T20:33:53.295Z,11.54
2019-04-06T20:36:22.812Z,11.59
2019-04-06T20:38:52.558Z,11.59
2019-04-06T20:41:21.934Z,11.61
2019-04-06T20:43:51.854Z,11.64
2019-04-06T20:46:21.288Z,11.64
2019-04-06T20:48:51.089Z,11.65
2019-04-06T20:51:20.505Z,11.67
2019-04-06T20:53:49.821Z,11.67
2019-04-06T20:56:19.644Z,11.71
2019-04-06T20:58:49.145Z,11.72
2019-04-06T21:01:18.602Z,11.73
2019-04-06T21:03:59.208Z,11.74
2019-04-06T21:06:19.177Z,11.74
2019-04-06T21:08:49.081Z,11.75
2019-04-06T21:11:18.405Z,11.76
2019-04-06T21:13:48.124Z,11.76
2019-04-06T21:16:17.904Z,11.77
2019-04-06T21:18:47.250Z,11.77
2019-04-06T21:21:16.633Z,11.74
2019-04-06T21:23:46.298Z,11.74
2019-04-06T21:26:16.203Z,11.76
2019-04-06T21:28:45.605Z,11.77
2019-04-06T21:31:15.145Z,11.77
2019-04-06T21:33:45.863Z,11.77
2019-04-06T21:36:15.503Z,11.72
2019-04-06T21:38:44.802Z,11.72
2019-04-06T21:41:14.145Z,11.72
2019-04-06T21:43:43.468Z,11.75
2019-04-06T21:46:13.149Z,11.75
2019-04-06T21:48:42.514Z,11.68
2019-04-06T21:51:12.404Z,11.68
2019-04-06T21:53:42.401Z,11.70
2019-04-06T21:56:12.320Z,11.63
2019-04-06T21:58:41.641Z,11.62
2019-04-06T22:01:13.585Z,11.62
2019-04-06T22:03:42.995Z,11.60
2019-04-06T22:06:12.696Z,11.51
2019-04-06T22:08:42.031Z,11.51
2019-04-06T22:11:11.937Z,11.49
2019-04-06T22:13:41.793Z,11.47
2019-04-06T22:16:11.515Z,11.37
2019-04-06T22:18:40.778Z,11.37
2019-04-06T22:21:10.104Z,11.38
2019-04-06T22:23:43.323Z,11.33
2019-04-06T22:26:11.006Z,11.24
2019-04-06T22:28:40.328Z,11.24
2019-04-06T22:31:09.953Z,11.19
2019-04-06T22:33:39.900Z,11.12
2019-04-06T22:36:09.275Z,11.12
2019-04-06T22:38:38.748Z,11.07
2019-04-06T22:41:07.985Z,11.03
2019-04-06T22:43:37.310Z,10.97
2019-04-06T22:46:06.970Z,10.97
2019-04-06T22:48:36.382Z,10.95
2019-04-06T22:51:05.756Z,10.91
2019-04-06T22:53:35.085Z,10.88
2019-04-06T22:56:04.527Z,10.86
2019-04-06T22:58:33.852Z,10.84
2019-04-06T23:01:08.012Z,10.77
2019-04-06T23:03:54.779Z,10.77
2019-04-06T23:06:49.741Z,10.74
2019-04-06T23:09:19.071Z,10.71
2019-04-06T23:11:48.420Z,10.67
2019-04-06T23:14:17.890Z,10.64
2019-04-06T23:16:47.674Z,10.59
2019-04-06T23:19:17.525Z,10.59
2019-04-06T23:21:46.874Z,10.57
2019-04-06T23:24:16.198Z,10.53
2019-04-06T23:26:45.562Z,10.53
2019-04-06T23:29:15.516Z,10.52
2019-04-06T23:31:45.213Z,10.49
2019-04-06T23:34:14.527Z,10.47
2019-04-06T23:36:44.165Z,10.46
2019-04-06T23:39:13.992Z,10.46
2019-04-06T23:41:43.755Z,10.45
2019-04-06T23:44:13.395Z,10.42
2019-04-06T23:46:42.796Z,10.41
2019-04-06T23:49:13.303Z,10.37
2019-04-06T23:51:42.709Z,10.35
2019-04-06T23:54:12.001Z,10.35
2019-04-06T23:56:41.678Z,10.35
2019-04-06T23:59:11.013Z,10.30
